sensor_id;sensor_type;location;lat;lon;timestamp;temperature;humidity
14473;DHT22;7322;50.872;4.386;2023-06-10T00:00:50;27.70;99.90
14473;DHT22;7322;50.872;4.386;2023-06-10T00:03:17;27.80;99.90
14473;DHT22;7322;50.872;4.386;2023-06-10T00:05:44;27.70;99.90
14473;DHT22;7322;50.872;4.386;2023-06-10T00:08:12;27.70;99.90
14473;DHT22;7322;50.872;4.386;2023-06-10T00:10:41;27.70;99.90
14473;DHT22;7322;50.872;4.386;2023-06-10T00:13:08;27.70;99.90
14473;DHT22;7322;50.872;4.386;2023-06-10T00:15:40;27.70;99.90
14473;DHT22;7322;50.872;4.386;2023-06-10T00:18:07;27.70;99.90
14473;DHT22;7322;50.872;4.386;2023-06-10T00:20:35;27.70;99.90
14473;DHT22;7322;50.872;4.386;2023-06-10T00:23:03;27.70;99.90
14473;DHT22;7322;50.872;4.386;2023-06-10T00:25:34;27.70;99.90
14473;DHT22;7322;50.872;4.386;2023-06-10T00:28:01;27.70;99.90
14473;DHT22;7322;50.872;4.386;2023-06-10T00:30:28;27.80;99.90
14473;DHT22;7322;50.872;4.386;2023-06-10T00:32:56;27.80;99.90
14473;DHT22;7322;50.872;4.386;2023-06-10T00:35:23;27.80;99.90
14473;DHT22;7322;50.872;4.386;2023-06-10T00:37:50;27.80;99.90
14473;DHT22;7322;50.872;4.386;2023-06-10T00:40:17;27.70;99.90
14473;DHT22;7322;50.872;4.386;2023-06-10T00:42:44;27.70;99.90
14473;DHT22;7322;50.872;4.386;2023-06-10T00:45:11;27.70;99.90
14473;DHT22;7322;50.872;4.386;2023-06-10T00:47:38;27.60;99.90
14473;DHT22;7322;50.872;4.386;2023-06-10T00:50:08;27.60;99.90
14473;DHT22;7322;50.872;4.386;2023-06-10T00:52:35;27.60;99.90
14473;DHT22;7322;50.872;4.386;2023-06-10T00:55:03;27.60;99.90
14473;DHT22;7322;50.872;4.386;2023-06-10T00:57:36;27.50;99.90
14473;DHT22;7322;50.872;4.386;2023-06-10T01:00:05;27.60;99.90
14473;DHT22;7322;50.872;4.386;2023-06-10T01:02:34;27.70;99.90
14473;DHT22;7322;50.872;4.386;2023-06-10T01:05:02;27.60;99.90
14473;DHT22;7322;50.872;4.386;2023-06-10T01:07:39;27.60;99.90
14473;DHT22;7322;50.872;4.386;2023-06-10T01:10:14;27.60;99.90
14473;DHT22;7322;50.872;4.386;2023-06-10T01:12:45;27.70;99.90
14473;DHT22;7322;50.872;4.386;2023-06-10T01:15:15;27.60;99.90
14473;DHT22;7322;50.872;4.386;2023-06-10T01:17:54;27.60;99.90
14473;DHT22;7322;50.872;4.386;2023-06-10T01:20:21;27.60;99.90
14473;DHT22;7322;50.872;4.386;2023-06-10T01:22:49;27.60;99.90
14473;DHT22;7322;50.872;4.386;2023-06-10T01:25:20;27.70;99.90
14473;DHT22;7322;50.872;4.386;2023-06-10T01:27:54;27.60;99.90
14473;DHT22;7322;50.872;4.386;2023-06-10T01:30:27;27.60;99.90
14473;DHT22;7322;50.872;4.386;2023-06-10T01:32:58;27.60;99.90
14473;DHT22;7322;50.872;4.386;2023-06-10T01:35:27;27.60;99.90
14473;DHT22;7322;50.872;4.386;2023-06-10T01:37:58;27.60;99.90
14473;DHT22;7322;50.872;4.386;2023-06-10T01:40:25;27.60;99.90
14473;DHT22;7322;50.872;4.386;2023-06-10T01:42:53;27.60;99.90
14473;DHT22;7322;50.872;4.386;2023-06-10T01:45:20;27.50;99.90
14473;DHT22;7322;50.872;4.386;2023-06-10T01:47:47;27.60;99.90
14473;DHT22;7322;50.872;4.386;2023-06-10T01:50:14;27.70;99.90
14473;DHT22;7322;50.872;4.386;2023-06-10T01:52:43;27.70;99.90
14473;DHT22;7322;50.872;4.386;2023-06-10T01:55:11;27.70;99.90
14473;DHT22;7322;50.872;4.386;2023-06-10T01:57:38;27.60;99.90
14473;DHT22;7322;50.872;4.386;2023-06-10T02:00:06;27.60;99.90
14473;DHT22;7322;50.872;4.386;2023-06-10T02:02:34;27.70;99.90
14473;DHT22;7322;50.872;4.386;2023-06-10T02:05:01;27.70;99.90
14473;DHT22;7322;50.872;4.386;2023-06-10T02:07:29;27.70;99.90
14473;DHT22;7322;50.872;4.386;2023-06-10T02:09:57;27.70;99.90
14473;DHT22;7322;50.872;4.386;2023-06-10T02:12:29;27.60;99.90
14473;DHT22;7322;50.872;4.386;2023-06-10T02:14:56;27.60;99.90
14473;DHT22;7322;50.872;4.386;2023-06-10T02:17:25;27.60;99.90
14473;DHT22;7322;50.872;4.386;2023-06-10T02:19:53;27.60;99.90
14473;DHT22;7322;50.872;4.386;2023-06-10T02:22:21;27.60;99.90
14473;DHT22;7322;50.872;4.386;2023-06-10T02:24:49;27.60;99.90
14473;DHT22;7322;50.872;4.386;2023-06-10T02:27:16;27.60;99.90
14473;DHT22;7322;50.872;4.386;2023-06-10T02:29:44;27.60;99.90
14473;DHT22;7322;50.872;4.386;2023-06-10T02:32:11;27.60;99.90
14473;DHT22;7322;50.872;4.386;2023-06-10T02:34:38;27.60;99.90
14473;DHT22;7322;50.872;4.386;2023-06-10T02:37:06;27.60;99.90
14473;DHT22;7322;50.872;4.386;2023-06-10T02:39:33;27.50;99.90
14473;DHT22;7322;50.872;4.386;2023-06-10T02:42:00;27.50;99.90
14473;DHT22;7322;50.872;4.386;2023-06-10T02:44:27;27.50;99.90
14473;DHT22;7322;50.872;4.386;2023-06-10T02:46:55;27.50;99.90
14473;DHT22;7322;50.872;4.386;2023-06-10T02:49:22;27.50;99.90
14473;DHT22;7322;50.872;4.386;2023-06-10T02:51:50;27.50;99.90
14473;DHT22;7322;50.872;4.386;2023-06-10T02:54:19;27.40;99.90
14473;DHT22;7322;50.872;4.386;2023-06-10T02:56:46;27.40;99.90
14473;DHT22;7322;50.872;4.386;2023-06-10T02:59:13;27.50;99.90
14473;DHT22;7322;50.872;4.386;2023-06-10T03:01:40;27.50;99.90
14473;DHT22;7322;50.872;4.386;2023-06-10T03:04:09;27.50;99.90
14473;DHT22;7322;50.872;4.386;2023-06-10T03:06:39;27.50;99.90
14473;DHT22;7322;50.872;4.386;2023-06-10T03:09:07;27.50;99.90
14473;DHT22;7322;50.872;4.386;2023-06-10T03:11:34;27.50;99.90
14473;DHT22;7322;50.872;4.386;2023-06-10T03:14:01;27.50;99.90
14473;DHT22;7322;50.872;4.386;2023-06-10T03:16:28;27.50;99.90
14473;DHT22;7322;50.872;4.386;2023-06-10T03:18:57;27.50;99.90
14473;DHT22;7322;50.872;4.386;2023-06-10T03:21:25;27.40;99.90
14473;DHT22;7322;50.872;4.386;2023-06-10T03:23:52;27.40;99.90
14473;DHT22;7322;50.872;4.386;2023-06-10T03:26:19;27.40;99.90
14473;DHT22;7322;50.872;4.386;2023-06-10T03:28:47;27.30;99.90
14473;DHT22;7322;50.872;4.386;2023-06-10T03:31:15;27.40;99.90
14473;DHT22;7322;50.872;4.386;2023-06-10T03:33:43;27.40;99.90
14473;DHT22;7322;50.872;4.386;2023-06-10T03:36:10;27.40;99.90
14473;DHT22;7322;50.872;4.386;2023-06-10T03:38:39;27.40;99.90
14473;DHT22;7322;50.872;4.386;2023-06-10T03:41:06;27.40;99.90
14473;DHT22;7322;50.872;4.386;2023-06-10T03:43:33;27.40;99.90
14473;DHT22;7322;50.872;4.386;2023-06-10T03:46:00;27.30;99.90
14473;DHT22;7322;50.872;4.386;2023-06-10T03:48:28;27.30;99.90
14473;DHT22;7322;50.872;4.386;2023-06-10T03:50:56;27.30;99.90
14473;DHT22;7322;50.872;4.386;2023-06-10T03:53:24;27.20;99.90
14473;DHT22;7322;50.872;4.386;2023-06-10T03:55:52;27.20;99.90
14473;DHT22;7322;50.872;4.386;2023-06-10T03:58:19;27.20;99.90
14473;DHT22;7322;50.872;4.386;2023-06-10T04:00:47;27.20;99.90
14473;DHT22;7322;50.872;4.386;2023-06-10T04:03:15;27.30;99.90
14473;DHT22;7322;50.872;4.386;2023-06-10T04:05:42;27.30;99.90
14473;DHT22;7322;50.872;4.386;2023-06-10T04:08:10;27.30;99.90
14473;DHT22;7322;50.872;4.386;2023-06-10T04:10:37;27.30;99.90
14473;DHT22;7322;50.872;4.386;2023-06-10T04:13:06;27.30;99.90
14473;DHT22;7322;50.872;4.386;2023-06-10T04:15:34;27.30;99.90
14473;DHT22;7322;50.872;4.386;2023-06-10T04:18:02;27.30;99.90
14473;DHT22;7322;50.872;4.386;2023-06-10T04:20:29;27.30;99.90
14473;DHT22;7322;50.872;4.386;2023-06-10T04:22:56;27.30;99.90
14473;DHT22;7322;50.872;4.386;2023-06-10T04:25:24;27.30;99.90
14473;DHT22;7322;50.872;4.386;2023-06-10T04:27:51;27.30;99.90
14473;DHT22;7322;50.872;4.386;2023-06-10T04:30:20;27.30;99.90
14473;DHT22;7322;50.872;4.386;2023-06-10T04:32:48;27.30;99.90
14473;DHT22;7322;50.872;4.386;2023-06-10T04:35:15;27.30;99.90
14473;DHT22;7322;50.872;4.386;2023-06-10T04:37:43;27.20;99.90
14473;DHT22;7322;50.872;4.386;2023-06-10T04:40:10;27.30;99.90
14473;DHT22;7322;50.872;4.386;2023-06-10T04:42:37;27.30;99.90
14473;DHT22;7322;50.872;4.386;2023-06-10T04:45:05;27.40;99.90
14473;DHT22;7322;50.872;4.386;2023-06-10T04:47:34;27.30;99.90
14473;DHT22;7322;50.872;4.386;2023-06-10T04:50:01;27.30;99.90
14473;DHT22;7322;50.872;4.386;2023-06-10T04:52:29;27.30;99.90
14473;DHT22;7322;50.872;4.386;2023-06-10T04:54:57;27.40;99.90
14473;DHT22;7322;50.872;4.386;2023-06-10T04:57:24;27.40;99.90
14473;DHT22;7322;50.872;4.386;2023-06-10T04:59:52;27.40;99.90
14473;DHT22;7322;50.872;4.386;2023-06-10T05:02:19;27.40;99.90
14473;DHT22;7322;50.872;4.386;2023-06-10T05:04:47;27.40;99.90
14473;DHT22;7322;50.872;4.386;2023-06-10T05:07:14;27.40;99.90
14473;DHT22;7322;50.872;4.386;2023-06-10T05:09:41;27.40;99.90
14473;DHT22;7322;50.872;4.386;2023-06-10T05:12:09;27.40;99.90
14473;DHT22;7322;50.872;4.386;2023-06-10T05:14:36;27.40;99.90
14473;DHT22;7322;50.872;4.386;2023-06-10T05:17:05;27.50;99.90
14473;DHT22;7322;50.872;4.386;2023-06-10T05:19:33;27.40;99.90
14473;DHT22;7322;50.872;4.386;2023-06-10T05:22:04;27.40;99.90
14473;DHT22;7322;50.872;4.386;2023-06-10T05:24:34;27.40;99.90
14473;DHT22;7322;50.872;4.386;2023-06-10T05:27:01;27.40;99.90
14473;DHT22;7322;50.872;4.386;2023-06-10T05:29:29;27.40;99.90
14473;DHT22;7322;50.872;4.386;2023-06-10T05:31:56;27.30;99.90
14473;DHT22;7322;50.872;4.386;2023-06-10T05:34:32;27.30;99.90
14473;DHT22;7322;50.872;4.386;2023-06-10T05:36:59;27.30;99.90
14473;DHT22;7322;50.872;4.386;2023-06-10T05:39:28;27.30;99.90
14473;DHT22;7322;50.872;4.386;2023-06-10T05:41:55;27.30;99.90
14473;DHT22;7322;50.872;4.386;2023-06-10T05:44:26;27.30;99.90
14473;DHT22;7322;50.872;4.386;2023-06-10T05:46:53;27.30;99.90
14473;DHT22;7322;50.872;4.386;2023-06-10T05:49:26;27.40;99.90
14473;DHT22;7322;50.872;4.386;2023-06-10T05:51:54;27.40;99.90
14473;DHT22;7322;50.872;4.386;2023-06-10T05:57:28;27.50;99.90
14473;DHT22;7322;50.872;4.386;2023-06-10T05:59:55;27.40;99.90
14473;DHT22;7322;50.872;4.386;2023-06-10T06:02:25;27.40;99.90
14473;DHT22;7322;50.872;4.386;2023-06-10T06:04:52;27.40;99.90
14473;DHT22;7322;50.872;4.386;2023-06-10T06:07:40;27.40;99.90
14473;DHT22;7322;50.872;4.386;2023-06-10T06:10:08;27.50;99.90
14473;DHT22;7322;50.872;4.386;2023-06-10T06:12:43;27.40;99.90
14473;DHT22;7322;50.872;4.386;2023-06-10T06:15:29;27.40;99.90
14473;DHT22;7322;50.872;4.386;2023-06-10T06:17:56;27.50;99.90
14473;DHT22;7322;50.872;4.386;2023-06-10T06:23:32;27.50;99.90
14473;DHT22;7322;50.872;4.386;2023-06-10T06:26:07;27.40;99.90
14473;DHT22;7322;50.872;4.386;2023-06-10T06:28:42;27.50;99.90
14473;DHT22;7322;50.872;4.386;2023-06-10T06:31:23;27.50;99.90
14473;DHT22;7322;50.872;4.386;2023-06-10T06:33:50;27.50;99.90
14473;DHT22;7322;50.872;4.386;2023-06-10T06:36:17;27.50;99.90
14473;DHT22;7322;50.872;4.386;2023-06-10T06:38:46;27.50;99.90
14473;DHT22;7322;50.872;4.386;2023-06-10T06:41:19;27.50;99.90
14473;DHT22;7322;50.872;4.386;2023-06-10T06:43:49;27.60;99.90
14473;DHT22;7322;50.872;4.386;2023-06-10T06:46:16;27.60;99.90
14473;DHT22;7322;50.872;4.386;2023-06-10T06:48:43;27.60;99.90
14473;DHT22;7322;50.872;4.386;2023-06-10T06:51:11;27.60;99.90
14473;DHT22;7322;50.872;4.386;2023-06-10T06:53:38;27.60;99.90
14473;DHT22;7322;50.872;4.386;2023-06-10T06:56:11;27.60;99.90
14473;DHT22;7322;50.872;4.386;2023-06-10T06:58:43;27.70;99.90
14473;DHT22;7322;50.872;4.386;2023-06-10T07:01:36;27.70;99.90
14473;DHT22;7322;50.872;4.386;2023-06-10T07:04:15;27.80;99.90
14473;DHT22;7322;50.872;4.386;2023-06-10T07:06:42;27.70;99.90
14473;DHT22;7322;50.872;4.386;2023-06-10T07:09:10;27.70;99.90
14473;DHT22;7322;50.872;4.386;2023-06-10T07:11:37;27.70;99.90
14473;DHT22;7322;50.872;4.386;2023-06-10T07:14:04;27.70;99.90
14473;DHT22;7322;50.872;4.386;2023-06-10T07:16:31;27.80;99.90
14473;DHT22;7322;50.872;4.386;2023-06-10T07:19:00;27.80;99.90
14473;DHT22;7322;50.872;4.386;2023-06-10T07:21:27;27.80;99.90
14473;DHT22;7322;50.872;4.386;2023-06-10T07:23:55;27.80;99.90
14473;DHT22;7322;50.872;4.386;2023-06-10T07:26:22;27.80;99.90
14473;DHT22;7322;50.872;4.386;2023-06-10T07:28:49;27.80;99.90
14473;DHT22;7322;50.872;4.386;2023-06-10T07:31:17;27.80;99.90
14473;DHT22;7322;50.872;4.386;2023-06-10T07:34:00;27.80;99.90
14473;DHT22;7322;50.872;4.386;2023-06-10T07:36:27;27.80;99.90
14473;DHT22;7322;50.872;4.386;2023-06-10T07:39:09;27.80;99.90
14473;DHT22;7322;50.872;4.386;2023-06-10T07:41:49;27.90;99.90
14473;DHT22;7322;50.872;4.386;2023-06-10T07:44:20;27.90;99.90
14473;DHT22;7322;50.872;4.386;2023-06-10T07:46:47;27.90;99.90
14473;DHT22;7322;50.872;4.386;2023-06-10T07:49:16;27.90;99.90
14473;DHT22;7322;50.872;4.386;2023-06-10T07:51:47;27.90;99.90
14473;DHT22;7322;50.872;4.386;2023-06-10T07:54:15;28.00;99.90
14473;DHT22;7322;50.872;4.386;2023-06-10T07:56:50;28.00;99.90
14473;DHT22;7322;50.872;4.386;2023-06-10T07:59:18;28.00;99.90
14473;DHT22;7322;50.872;4.386;2023-06-10T08:01:45;28.00;99.90
14473;DHT22;7322;50.872;4.386;2023-06-10T08:04:12;28.00;99.90
14473;DHT22;7322;50.872;4.386;2023-06-10T08:06:41;28.00;99.90
14473;DHT22;7322;50.872;4.386;2023-06-10T08:09:08;28.00;99.90
14473;DHT22;7322;50.872;4.386;2023-06-10T08:11:35;28.00;99.90
14473;DHT22;7322;50.872;4.386;2023-06-10T08:14:02;28.00;99.90
14473;DHT22;7322;50.872;4.386;2023-06-10T08:16:29;28.00;99.90
14473;DHT22;7322;50.872;4.386;2023-06-10T08:18:56;28.00;99.90
14473;DHT22;7322;50.872;4.386;2023-06-10T08:21:23;28.00;99.90
14473;DHT22;7322;50.872;4.386;2023-06-10T08:23:54;28.00;99.90
14473;DHT22;7322;50.872;4.386;2023-06-10T08:26:21;28.00;99.90
14473;DHT22;7322;50.872;4.386;2023-06-10T08:28:48;28.00;99.90
14473;DHT22;7322;50.872;4.386;2023-06-10T08:31:15;28.00;99.90
14473;DHT22;7322;50.872;4.386;2023-06-10T08:33:42;28.00;99.90
14473;DHT22;7322;50.872;4.386;2023-06-10T08:36:09;28.00;99.90
14473;DHT22;7322;50.872;4.386;2023-06-10T08:38:36;28.00;99.90
14473;DHT22;7322;50.872;4.386;2023-06-10T08:41:06;28.00;99.90
14473;DHT22;7322;50.872;4.386;2023-06-10T08:43:37;28.10;99.90
14473;DHT22;7322;50.872;4.386;2023-06-10T08:46:09;28.10;99.90
14473;DHT22;7322;50.872;4.386;2023-06-10T08:48:42;28.10;99.90
14473;DHT22;7322;50.872;4.386;2023-06-10T08:51:10;28.10;99.90
14473;DHT22;7322;50.872;4.386;2023-06-10T08:53:40;28.10;99.90
14473;DHT22;7322;50.872;4.386;2023-06-10T08:56:10;28.20;99.90
14473;DHT22;7322;50.872;4.386;2023-06-10T08:58:37;28.10;99.90
14473;DHT22;7322;50.872;4.386;2023-06-10T09:01:08;28.10;99.90
14473;DHT22;7322;50.872;4.386;2023-06-10T09:03:37;28.10;99.90
14473;DHT22;7322;50.872;4.386;2023-06-10T09:06:05;28.10;99.90
14473;DHT22;7322;50.872;4.386;2023-06-10T09:08:43;28.20;99.90
14473;DHT22;7322;50.872;4.386;2023-06-10T09:11:11;28.20;99.90
14473;DHT22;7322;50.872;4.386;2023-06-10T09:13:39;28.20;99.90
14473;DHT22;7322;50.872;4.386;2023-06-10T09:16:06;28.20;99.90
14473;DHT22;7322;50.872;4.386;2023-06-10T09:18:33;28.20;99.90
14473;DHT22;7322;50.872;4.386;2023-06-10T09:21:00;28.20;99.90
14473;DHT22;7322;50.872;4.386;2023-06-10T09:23:27;28.20;99.90
14473;DHT22;7322;50.872;4.386;2023-06-10T09:25:58;28.20;99.90
14473;DHT22;7322;50.872;4.386;2023-06-10T09:28:27;28.20;99.90
14473;DHT22;7322;50.872;4.386;2023-06-10T09:31:05;28.30;99.90
14473;DHT22;7322;50.872;4.386;2023-06-10T09:33:33;28.30;99.90
14473;DHT22;7322;50.872;4.386;2023-06-10T09:36:04;28.20;99.90
14473;DHT22;7322;50.872;4.386;2023-06-10T09:38:32;28.30;99.90
14473;DHT22;7322;50.872;4.386;2023-06-10T09:40:59;28.30;99.90
14473;DHT22;7322;50.872;4.386;2023-06-10T09:43:40;28.30;99.90
14473;DHT22;7322;50.872;4.386;2023-06-10T09:46:14;28.30;99.90
14473;DHT22;7322;50.872;4.386;2023-06-10T09:48:44;28.30;99.90
14473;DHT22;7322;50.872;4.386;2023-06-10T09:51:12;28.30;99.90
14473;DHT22;7322;50.872;4.386;2023-06-10T09:53:39;28.30;99.90
14473;DHT22;7322;50.872;4.386;2023-06-10T09:56:06;28.30;99.90
14473;DHT22;7322;50.872;4.386;2023-06-10T09:58:35;28.30;99.90
14473;DHT22;7322;50.872;4.386;2023-06-10T10:01:06;28.30;99.90
14473;DHT22;7322;50.872;4.386;2023-06-10T10:03:33;28.40;99.90
14473;DHT22;7322;50.872;4.386;2023-06-10T10:06:00;28.40;99.90
14473;DHT22;7322;50.872;4.386;2023-06-10T10:08:27;28.40;99.90
14473;DHT22;7322;50.872;4.386;2023-06-10T10:10:56;28.40;99.90
14473;DHT22;7322;50.872;4.386;2023-06-10T10:13:26;28.40;99.90
14473;DHT22;7322;50.872;4.386;2023-06-10T10:15:54;28.40;99.90
14473;DHT22;7322;50.872;4.386;2023-06-10T10:18:25;28.50;99.90
14473;DHT22;7322;50.872;4.386;2023-06-10T10:20:57;28.50;99.90
14473;DHT22;7322;50.872;4.386;2023-06-10T10:23:31;28.50;99.90
14473;DHT22;7322;50.872;4.386;2023-06-10T10:26:04;28.50;99.90
14473;DHT22;7322;50.872;4.386;2023-06-10T10:28:37;28.50;99.90
14473;DHT22;7322;50.872;4.386;2023-06-10T10:31:19;28.50;99.90
14473;DHT22;7322;50.872;4.386;2023-06-10T10:33:54;28.50;99.90
14473;DHT22;7322;50.872;4.386;2023-06-10T10:36:22;28.50;99.90
14473;DHT22;7322;50.872;4.386;2023-06-10T10:38:50;28.50;99.90
14473;DHT22;7322;50.872;4.386;2023-06-10T10:41:18;28.50;99.90
14473;DHT22;7322;50.872;4.386;2023-06-10T10:43:46;28.50;99.90
14473;DHT22;7322;50.872;4.386;2023-06-10T10:46:16;28.50;99.90
14473;DHT22;7322;50.872;4.386;2023-06-10T10:48:43;28.50;99.90
14473;DHT22;7322;50.872;4.386;2023-06-10T10:51:12;28.50;99.90
14473;DHT22;7322;50.872;4.386;2023-06-10T10:53:42;28.60;99.90
14473;DHT22;7322;50.872;4.386;2023-06-10T10:56:14;28.50;99.90
14473;DHT22;7322;50.872;4.386;2023-06-10T10:58:41;28.50;99.90
14473;DHT22;7322;50.872;4.386;2023-06-10T11:01:11;28.50;99.90
14473;DHT22;7322;50.872;4.386;2023-06-10T11:03:43;28.50;99.90
14473;DHT22;7322;50.872;4.386;2023-06-10T11:06:14;28.60;99.90
14473;DHT22;7322;50.872;4.386;2023-06-10T11:08:49;28.60;99.90
14473;DHT22;7322;50.872;4.386;2023-06-10T11:11:21;28.60;99.90
14473;DHT22;7322;50.872;4.386;2023-06-10T11:14:07;28.60;99.90
14473;DHT22;7322;50.872;4.386;2023-06-10T11:16:39;28.60;99.90
14473;DHT22;7322;50.872;4.386;2023-06-10T11:19:09;28.60;99.90
14473;DHT22;7322;50.872;4.386;2023-06-10T11:22:00;28.60;99.90
14473;DHT22;7322;50.872;4.386;2023-06-10T11:24:28;28.60;99.90
14473;DHT22;7322;50.872;4.386;2023-06-10T11:27:18;28.60;99.90
14473;DHT22;7322;50.872;4.386;2023-06-10T11:32:51;28.60;99.90
14473;DHT22;7322;50.872;4.386;2023-06-10T11:35:20;28.60;99.90
14473;DHT22;7322;50.872;4.386;2023-06-10T11:37:49;28.60;99.90
14473;DHT22;7322;50.872;4.386;2023-06-10T11:40:16;28.60;99.90
14473;DHT22;7322;50.872;4.386;2023-06-10T11:42:43;28.60;99.90
14473;DHT22;7322;50.872;4.386;2023-06-10T11:45:15;28.60;99.90
14473;DHT22;7322;50.872;4.386;2023-06-10T11:47:55;28.60;99.90
14473;DHT22;7322;50.872;4.386;2023-06-10T11:50:30;28.70;99.90
14473;DHT22;7322;50.872;4.386;2023-06-10T11:52:59;28.60;99.90
14473;DHT22;7322;50.872;4.386;2023-06-10T11:55:26;28.60;99.90
14473;DHT22;7322;50.872;4.386;2023-06-10T11:58:04;28.70;99.90
14473;DHT22;7322;50.872;4.386;2023-06-10T12:00:31;28.60;99.90
14473;DHT22;7322;50.872;4.386;2023-06-10T12:02:58;28.70;99.90
14473;DHT22;7322;50.872;4.386;2023-06-10T12:05:25;28.70;99.90
14473;DHT22;7322;50.872;4.386;2023-06-10T12:08:09;28.70;99.90
14473;DHT22;7322;50.872;4.386;2023-06-10T12:10:40;28.70;99.90
14473;DHT22;7322;50.872;4.386;2023-06-10T12:13:08;28.70;99.90
14473;DHT22;7322;50.872;4.386;2023-06-10T12:15:35;28.70;99.90
14473;DHT22;7322;50.872;4.386;2023-06-10T12:18:03;28.70;99.90
14473;DHT22;7322;50.872;4.386;2023-06-10T12:20:32;28.70;99.90
14473;DHT22;7322;50.872;4.386;2023-06-10T12:23:00;28.70;99.90
14473;DHT22;7322;50.872;4.386;2023-06-10T12:25:29;28.70;99.90
14473;DHT22;7322;50.872;4.386;2023-06-10T12:27:57;28.80;99.90
14473;DHT22;7322;50.872;4.386;2023-06-10T12:30:26;28.70;99.90
14473;DHT22;7322;50.872;4.386;2023-06-10T12:32:53;28.70;99.90
14473;DHT22;7322;50.872;4.386;2023-06-10T12:35:28;28.70;99.90
14473;DHT22;7322;50.872;4.386;2023-06-10T12:37:56;28.80;99.90
14473;DHT22;7322;50.872;4.386;2023-06-10T12:40:30;28.70;99.90
14473;DHT22;7322;50.872;4.386;2023-06-10T12:42:58;28.80;99.90
14473;DHT22;7322;50.872;4.386;2023-06-10T12:45:29;28.80;99.90
14473;DHT22;7322;50.872;4.386;2023-06-10T12:48:07;28.80;99.90
14473;DHT22;7322;50.872;4.386;2023-06-10T12:50:37;28.80;99.90
14473;DHT22;7322;50.872;4.386;2023-06-10T12:53:06;28.80;99.90
14473;DHT22;7322;50.872;4.386;2023-06-10T12:55:39;28.70;99.90
14473;DHT22;7322;50.872;4.386;2023-06-10T12:58:06;28.80;99.90
14473;DHT22;7322;50.872;4.386;2023-06-10T13:00:33;28.80;99.90
14473;DHT22;7322;50.872;4.386;2023-06-10T13:03:01;28.70;99.90
14473;DHT22;7322;50.872;4.386;2023-06-10T13:05:29;28.80;99.90
14473;DHT22;7322;50.872;4.386;2023-06-10T13:07:57;28.80;99.90
14473;DHT22;7322;50.872;4.386;2023-06-10T13:10:26;28.80;99.90
14473;DHT22;7322;50.872;4.386;2023-06-10T13:12:54;28.80;99.90
14473;DHT22;7322;50.872;4.386;2023-06-10T13:15:22;28.80;99.90
14473;DHT22;7322;50.872;4.386;2023-06-10T13:17:49;28.80;99.90
14473;DHT22;7322;50.872;4.386;2023-06-10T13:20:20;28.80;99.90
14473;DHT22;7322;50.872;4.386;2023-06-10T13:23:13;28.80;99.90
14473;DHT22;7322;50.872;4.386;2023-06-10T13:25:45;28.90;99.90
14473;DHT22;7322;50.872;4.386;2023-06-10T13:31:40;28.90;99.90
14473;DHT22;7322;50.872;4.386;2023-06-10T13:34:15;28.90;99.90
14473;DHT22;7322;50.872;4.386;2023-06-10T13:36:44;29.00;99.90
14473;DHT22;7322;50.872;4.386;2023-06-10T13:39:11;28.90;99.90
14473;DHT22;7322;50.872;4.386;2023-06-10T13:41:40;28.90;99.90
14473;DHT22;7322;50.872;4.386;2023-06-10T13:44:15;28.90;99.90
14473;DHT22;7322;50.872;4.386;2023-06-10T13:46:44;28.90;99.90
14473;DHT22;7322;50.872;4.386;2023-06-10T13:49:11;29.00;99.90
14473;DHT22;7322;50.872;4.386;2023-06-10T13:51:38;28.90;99.90
14473;DHT22;7322;50.872;4.386;2023-06-10T13:54:05;28.90;99.90
14473;DHT22;7322;50.872;4.386;2023-06-10T13:56:32;28.90;99.90
14473;DHT22;7322;50.872;4.386;2023-06-10T13:59:03;28.90;99.90
14473;DHT22;7322;50.872;4.386;2023-06-10T14:01:30;28.90;99.90
14473;DHT22;7322;50.872;4.386;2023-06-10T14:03:58;28.90;99.90
14473;DHT22;7322;50.872;4.386;2023-06-10T14:06:27;29.00;99.90
14473;DHT22;7322;50.872;4.386;2023-06-10T14:09:02;29.00;99.90
14473;DHT22;7322;50.872;4.386;2023-06-10T14:11:29;29.00;99.90
14473;DHT22;7322;50.872;4.386;2023-06-10T14:13:56;29.00;99.90
14473;DHT22;7322;50.872;4.386;2023-06-10T14:16:25;29.00;99.90
14473;DHT22;7322;50.872;4.386;2023-06-10T14:18:52;29.00;99.90
14473;DHT22;7322;50.872;4.386;2023-06-10T14:21:20;29.00;99.90
14473;DHT22;7322;50.872;4.386;2023-06-10T14:23:47;29.00;99.90
14473;DHT22;7322;50.872;4.386;2023-06-10T14:26:17;29.00;99.90
14473;DHT22;7322;50.872;4.386;2023-06-10T14:28:44;29.00;99.90
14473;DHT22;7322;50.872;4.386;2023-06-10T14:31:11;29.00;99.90
14473;DHT22;7322;50.872;4.386;2023-06-10T14:33:38;29.00;99.90
14473;DHT22;7322;50.872;4.386;2023-06-10T14:36:07;29.10;99.90
14473;DHT22;7322;50.872;4.386;2023-06-10T14:38:36;29.00;99.90
14473;DHT22;7322;50.872;4.386;2023-06-10T14:41:03;29.10;99.90
14473;DHT22;7322;50.872;4.386;2023-06-10T14:43:30;29.00;99.90
14473;DHT22;7322;50.872;4.386;2023-06-10T14:45:57;29.00;99.90
14473;DHT22;7322;50.872;4.386;2023-06-10T14:48:24;29.10;99.90
14473;DHT22;7322;50.872;4.386;2023-06-10T14:50:57;29.10;99.90
14473;DHT22;7322;50.872;4.386;2023-06-10T14:53:24;29.10;99.90
14473;DHT22;7322;50.872;4.386;2023-06-10T14:55:56;29.10;99.90
14473;DHT22;7322;50.872;4.386;2023-06-10T14:58:29;29.10;99.90
14473;DHT22;7322;50.872;4.386;2023-06-10T15:00:58;29.10;99.90
14473;DHT22;7322;50.872;4.386;2023-06-10T15:03:28;29.10;99.90
14473;DHT22;7322;50.872;4.386;2023-06-10T15:05:55;29.10;99.90
14473;DHT22;7322;50.872;4.386;2023-06-10T15:08:22;29.10;99.90
14473;DHT22;7322;50.872;4.386;2023-06-10T15:10:49;29.10;99.90
14473;DHT22;7322;50.872;4.386;2023-06-10T15:13:17;29.10;99.90
14473;DHT22;7322;50.872;4.386;2023-06-10T15:15:45;29.20;99.90
14473;DHT22;7322;50.872;4.386;2023-06-10T15:18:18;29.10;99.90
14473;DHT22;7322;50.872;4.386;2023-06-10T15:21:07;29.20;99.90
14473;DHT22;7322;50.872;4.386;2023-06-10T15:23:34;29.20;99.90
14473;DHT22;7322;50.872;4.386;2023-06-10T15:26:01;29.10;99.90
14473;DHT22;7322;50.872;4.386;2023-06-10T15:28:31;29.10;99.90
14473;DHT22;7322;50.872;4.386;2023-06-10T15:30:57;29.20;99.90
14473;DHT22;7322;50.872;4.386;2023-06-10T15:33:50;29.20;99.90
14473;DHT22;7322;50.872;4.386;2023-06-10T15:36:27;29.20;99.90
14473;DHT22;7322;50.872;4.386;2023-06-10T15:38:54;29.20;99.90
14473;DHT22;7322;50.872;4.386;2023-06-10T15:41:24;29.20;99.90
14473;DHT22;7322;50.872;4.386;2023-06-10T15:43:52;29.20;99.90
14473;DHT22;7322;50.872;4.386;2023-06-10T15:46:19;29.30;99.90
14473;DHT22;7322;50.872;4.386;2023-06-10T15:48:47;29.30;99.90
14473;DHT22;7322;50.872;4.386;2023-06-10T15:51:14;29.20;99.90
14473;DHT22;7322;50.872;4.386;2023-06-10T15:53:40;29.30;99.90
14473;DHT22;7322;50.872;4.386;2023-06-10T15:56:08;29.30;99.90
14473;DHT22;7322;50.872;4.386;2023-06-10T15:58:35;29.30;99.90
14473;DHT22;7322;50.872;4.386;2023-06-10T16:01:03;29.30;99.90
14473;DHT22;7322;50.872;4.386;2023-06-10T16:03:30;29.30;99.90
14473;DHT22;7322;50.872;4.386;2023-06-10T16:05:57;29.30;99.90
14473;DHT22;7322;50.872;4.386;2023-06-10T16:08:24;29.30;99.90
14473;DHT22;7322;50.872;4.386;2023-06-10T16:10:51;29.40;99.90